Air Resources Laboratory banner image
Air Resources Laboratory web site National Oceanic and Atmospheric Administration (NOAA)

sc metar


KSPA 180055Z AUTO 00000KT 10SM SCT075 BKN100 BKN120 22/21 A2994 RMK AO2=